Amarant — CQSF — position and weather

sailwx.info

Track history (hours):
 
Tides and Currents Weather Stations Pressure Air Temp Water Temp Dewpoint Dewpoint Depression Visibility Wind Speed Wind Dir Waves Ship Positions

Amarant

Last reported at 2017-Jan-16 07:20 UTC. Time now 2017-Jan-16 12:47 UTC.
Position N 53°27' E 004°57'.

Length 123 m; draft 5.3 m.

Type: Tanker. MMSI: 255623000.

Date/timePositionNaut miles runAvg speedWind from/ knotsBaromVisibWave heightAir tempDewpointWater temp
2017-Jan-16 07:20N 53°27' E 004°57'1514.8
2017-Jan-16 06:19N 53°17' E 004°38'1215.9
2017-Jan-16 05:33N 53°07' E 004°28'1515.4
2017-Jan-16 04:33N 52°53' E 004°16'1514.7
2017-Jan-16 03:32N 52°42' E 004°00'2913.6
2017-Jan-16 01:26N 52°19' E 003°31'1213.4
2017-Jan-16 00:33N 52°08' E 003°26'1312.9
2017-Jan-15 23:32N 51°55' E 003°22'1212.3
2017-Jan-15 22:33N 51°43' E 003°16'1212.3
2017-Jan-15 21:33N 51°33' E 003°25'1111.4
2017-Jan-15 20:33N 51°26' E 003°41'1111.4
2017-Jan-15 19:33N 51°26' E 003°59'1212.4
2017-Jan-15 18:33N 51°20' E 004°16'4 4.2
2017-Jan-15 17:33N 51°17' E 004°20'2 2.1
2017-Jan-15 16:33N 51°15' E 004°23'0 0.0
2017-Jan-15 15:33N 51°15' E 004°23'0 0.0
2017-Jan-15 14:33N 51°15' E 004°23'0 0.0
2017-Jan-15 13:33N 51°15' E 004°23'0 0.0
2017-Jan-15 12:33N 51°15' E 004°23'0 0.0
2017-Jan-15 11:33N 51°15' E 004°23'0 0.0
2017-Jan-15 10:33N 51°15' E 004°23'0 0.0
2017-Jan-15 09:33N 51°15' E 004°23'0 0.0
2017-Jan-15 08:33N 51°15' E 004°23'0 0.0
2017-Jan-15 07:33N 51°15' E 004°23'0 0.0
2017-Jan-15 06:33N 51°15' E 004°23'0 0.0
2017-Jan-15 05:33N 51°15' E 004°23'0 0.0
2017-Jan-15 04:33N 51°15' E 004°23'0 0.0
2017-Jan-15 03:33N 51°15' E 004°23'0 0.0
2017-Jan-15 02:33N 51°15' E 004°23'0 0.0
2017-Jan-15 01:33N 51°15' E 004°23'0 0.0
2017-Jan-15 00:33N 51°15' E 004°23'0 0.0
2017-Jan-14 23:33N 51°15' E 004°23'0 0.0
2017-Jan-14 22:33N 51°15' E 004°23'0 0.1
2017-Jan-14 21:34N 51°15' E 004°22'2 2.1
2017-Jan-14 20:33N 51°17' E 004°20'5 4.8
2017-Jan-14 19:34N 51°21' E 004°16'8 8.3
2017-Jan-14 18:33N 51°23' E 004°03'5 5.4
2017-Jan-14 17:33N 51°22' E 003°54'1010.0
2017-Jan-14 16:33N 51°25' E 003°39'1010.2
2017-Jan-14 15:33N 51°31' E 003°26'1211.8
2017-Jan-14 14:33N 51°41' E 003°16'5 0.6
2017-Jan-14 06:31N 51°46' E 003°18'1 0.1
2017-Jan-13 21:16N 51°47' E 003°16'21311.1
2017-Jan-13 02:05N 54°01' E 007°51'1114.9
2017-Jan-13 01:20N 54°00' E 008°10'1012.4
2017-Jan-13 00:33N 53°59' E 008°26'1212.2
2017-Jan-12 23:33N 53°52' E 008°43'1010.5
2017-Jan-12 22:33N 53°52' E 009°01'1110.7
2017-Jan-12 21:33N 53°51' E 009°19'1514.8
2017-Jan-12 20:34N 53°38' E 009°32'1313.1
2017-Jan-12 19:33N 53°33' E 009°52'5 5.3
2017-Jan-12 18:33N 53°29' E 009°57'0 0.0
2017-Jan-12 17:33N 53°29' E 009°57'0 0.0
2017-Jan-12 16:33N 53°29' E 009°57'0 0.0
2017-Jan-12 15:33N 53°29' E 009°57'0 0.0
2017-Jan-12 14:33N 53°29' E 009°57'0 0.0
2017-Jan-12 13:33N 53°29' E 009°57'0 0.0
2017-Jan-12 12:33N 53°29' E 009°57'0 0.0
2017-Jan-12 11:33N 53°29' E 009°57'0 0.0
2017-Jan-12 10:33N 53°29' E 009°57'0 0.0
2017-Jan-12 09:33N 53°29' E 009°57'0 0.0
2017-Jan-12 08:33N 53°29' E 009°57'0 0.0
2017-Jan-12 07:33N 53°29' E 009°57'0 0.0
2017-Jan-12 06:33N 53°29' E 009°57'0 0.0
2017-Jan-12 05:33N 53°29' E 009°57'0 0.0
2017-Jan-12 04:33N 53°29' E 009°57'0 0.0
2017-Jan-12 03:33N 53°29' E 009°57'0 0.0
2017-Jan-12 02:33N 53°29' E 009°57'0 0.0
2017-Jan-12 01:33N 53°29' E 009°57'0 0.0
2017-Jan-12 00:33N 53°29' E 009°57'0 0.0
2017-Jan-11 23:33N 53°29' E 009°57'0 0.0
2017-Jan-11 22:33N 53°29' E 009°57'0 0.0
2017-Jan-11 21:33N 53°29' E 009°57'0 0.0
2017-Jan-11 20:33N 53°29' E 009°57'0 0.0
2017-Jan-11 19:33N 53°29' E 009°57'0 0.0
2017-Jan-11 18:33N 53°29' E 009°57'0 0.0
2017-Jan-11 17:33N 53°29' E 009°57'0 0.0
2017-Jan-11 16:33N 53°29' E 009°57'0 0.0
2017-Jan-11 15:33N 53°29' E 009°57'0 0.0
2017-Jan-11 14:32N 53°29' E 009°57'0 0.0
2017-Jan-11 13:32N 53°29' E 009°57'0 0.0
2017-Jan-11 12:32N 53°29' E 009°57'0 0.0
2017-Jan-11 11:32N 53°29' E 009°57'0 0.0
2017-Jan-11 10:33N 53°29' E 009°57'0 0.0
2017-Jan-11 09:33N 53°29' E 009°57'4 3.9
2017-Jan-11 08:33N 53°32' E 009°56'8 7.6
2017-Jan-11 07:33N 53°34' E 009°43'8 7.7
2017-Jan-11 06:33N 53°38' E 009°32'7 7.5
2017-Jan-11 05:33N 53°44' E 009°26'7 6.8
2017-Jan-11 04:33N 53°50' E 009°20'8 7.9
2017-Jan-11 03:34N 53°53' E 009°08'3 3.2
2017-Jan-11 02:33N 53°56' E 009°12'8 8.4
2017-Jan-11 01:33N 54°03' E 009°18'54 7.4
2017-Jan-10 18:10N 54°34' E 010°35'914.1
2017-Jan-10 17:34N 54°35' E 010°49'1514.7
2017-Jan-10 16:34N 54°35' E 011°15'1916.0
2017-Jan-10 15:21N 54°27' E 011°45'7112.2
2017-Jan-10 09:33N 54°58' E 013°35'1413.4
2017-Jan-10 08:32N 55°03' E 013°57'1211.9
2017-Jan-10 07:32N 55°11' E 014°12'1212.2
2017-Jan-10 06:34N 55°20' E 014°26'1312.3
2017-Jan-10 05:31N 55°29' E 014°41'1313.4
2017-Jan-10 04:33N 55°36' E 015°01'  
Track history (hours):
 
Tides and Currents Weather Stations Pressure Air Temp Water Temp Dewpoint Dewpoint Depression Visibility Wind Speed Wind Dir Waves Ship Positions

Amarant

Last reported at 2017-Jan-16 07:20 UTC. Time now 2017-Jan-16 12:47 UTC.
Position N 53°27' E 004°57'.

Length 123 m; draft 5.3 m.

Type: Tanker. MMSI: 255623000.

Date/timePositionNaut miles runAvg speedWind from/ knotsBaromVisibWave heightAir tempDewpointWater temp
2017-Jan-16 07:20N 53°27' E 004°57'1514.8
2017-Jan-16 06:19N 53°17' E 004°38'1215.9
2017-Jan-16 05:33N 53°07' E 004°28'1515.4
2017-Jan-16 04:33N 52°53' E 004°16'1514.7
2017-Jan-16 03:32N 52°42' E 004°00'2913.6
2017-Jan-16 01:26N 52°19' E 003°31'1213.4
2017-Jan-16 00:33N 52°08' E 003°26'1312.9
2017-Jan-15 23:32N 51°55' E 003°22'1212.3
2017-Jan-15 22:33N 51°43' E 003°16'1212.3
2017-Jan-15 21:33N 51°33' E 003°25'1111.4
2017-Jan-15 20:33N 51°26' E 003°41'1111.4
2017-Jan-15 19:33N 51°26' E 003°59'1212.4
2017-Jan-15 18:33N 51°20' E 004°16'4 4.2
2017-Jan-15 17:33N 51°17' E 004°20'2 2.1
2017-Jan-15 16:33N 51°15' E 004°23'0 0.0
2017-Jan-15 15:33N 51°15' E 004°23'0 0.0
2017-Jan-15 14:33N 51°15' E 004°23'0 0.0
2017-Jan-15 13:33N 51°15' E 004°23'0 0.0
2017-Jan-15 12:33N 51°15' E 004°23'0 0.0
2017-Jan-15 11:33N 51°15' E 004°23'0 0.0
2017-Jan-15 10:33N 51°15' E 004°23'0 0.0
2017-Jan-15 09:33N 51°15' E 004°23'0 0.0
2017-Jan-15 08:33N 51°15' E 004°23'0 0.0
2017-Jan-15 07:33N 51°15' E 004°23'0 0.0
2017-Jan-15 06:33N 51°15' E 004°23'0 0.0
2017-Jan-15 05:33N 51°15' E 004°23'0 0.0
2017-Jan-15 04:33N 51°15' E 004°23'0 0.0
2017-Jan-15 03:33N 51°15' E 004°23'0 0.0
2017-Jan-15 02:33N 51°15' E 004°23'0 0.0
2017-Jan-15 01:33N 51°15' E 004°23'0 0.0
2017-Jan-15 00:33N 51°15' E 004°23'0 0.0
2017-Jan-14 23:33N 51°15' E 004°23'0 0.0
2017-Jan-14 22:33N 51°15' E 004°23'0 0.1
2017-Jan-14 21:34N 51°15' E 004°22'2 2.1
2017-Jan-14 20:33N 51°17' E 004°20'5 4.8
2017-Jan-14 19:34N 51°21' E 004°16'8 8.3
2017-Jan-14 18:33N 51°23' E 004°03'5 5.4
2017-Jan-14 17:33N 51°22' E 003°54'1010.0
2017-Jan-14 16:33N 51°25' E 003°39'1010.2
2017-Jan-14 15:33N 51°31' E 003°26'1211.8
2017-Jan-14 14:33N 51°41' E 003°16'5 0.6
2017-Jan-14 06:31N 51°46' E 003°18'1 0.1
2017-Jan-13 21:16N 51°47' E 003°16'21311.1
2017-Jan-13 02:05N 54°01' E 007°51'1114.9
2017-Jan-13 01:20N 54°00' E 008°10'1012.4
2017-Jan-13 00:33N 53°59' E 008°26'1212.2
2017-Jan-12 23:33N 53°52' E 008°43'1010.5
2017-Jan-12 22:33N 53°52' E 009°01'1110.7
2017-Jan-12 21:33N 53°51' E 009°19'1514.8
2017-Jan-12 20:34N 53°38' E 009°32'1313.1
2017-Jan-12 19:33N 53°33' E 009°52'5 5.3
2017-Jan-12 18:33N 53°29' E 009°57'0 0.0
2017-Jan-12 17:33N 53°29' E 009°57'0 0.0
2017-Jan-12 16:33N 53°29' E 009°57'0 0.0
2017-Jan-12 15:33N 53°29' E 009°57'0 0.0
2017-Jan-12 14:33N 53°29' E 009°57'0 0.0
2017-Jan-12 13:33N 53°29' E 009°57'0 0.0
2017-Jan-12 12:33N 53°29' E 009°57'0 0.0
2017-Jan-12 11:33N 53°29' E 009°57'0 0.0
2017-Jan-12 10:33N 53°29' E 009°57'0 0.0
2017-Jan-12 09:33N 53°29' E 009°57'0 0.0
2017-Jan-12 08:33N 53°29' E 009°57'0 0.0
2017-Jan-12 07:33N 53°29' E 009°57'0 0.0
2017-Jan-12 06:33N 53°29' E 009°57'0 0.0
2017-Jan-12 05:33N 53°29' E 009°57'0 0.0
2017-Jan-12 04:33N 53°29' E 009°57'0 0.0
2017-Jan-12 03:33N 53°29' E 009°57'0 0.0
2017-Jan-12 02:33N 53°29' E 009°57'0 0.0
2017-Jan-12 01:33N 53°29' E 009°57'0 0.0
2017-Jan-12 00:33N 53°29' E 009°57'0 0.0
2017-Jan-11 23:33N 53°29' E 009°57'0 0.0
2017-Jan-11 22:33N 53°29' E 009°57'0 0.0
2017-Jan-11 21:33N 53°29' E 009°57'0 0.0
2017-Jan-11 20:33N 53°29' E 009°57'0 0.0
2017-Jan-11 19:33N 53°29' E 009°57'0 0.0
2017-Jan-11 18:33N 53°29' E 009°57'0 0.0
2017-Jan-11 17:33N 53°29' E 009°57'0 0.0
2017-Jan-11 16:33N 53°29' E 009°57'0 0.0
2017-Jan-11 15:33N 53°29' E 009°57'0 0.0
2017-Jan-11 14:32N 53°29' E 009°57'0 0.0
2017-Jan-11 13:32N 53°29' E 009°57'0 0.0
2017-Jan-11 12:32N 53°29' E 009°57'0 0.0
2017-Jan-11 11:32N 53°29' E 009°57'0 0.0
2017-Jan-11 10:33N 53°29' E 009°57'0 0.0
2017-Jan-11 09:33N 53°29' E 009°57'4 3.9
2017-Jan-11 08:33N 53°32' E 009°56'8 7.6
2017-Jan-11 07:33N 53°34' E 009°43'8 7.7
2017-Jan-11 06:33N 53°38' E 009°32'7 7.5
2017-Jan-11 05:33N 53°44' E 009°26'7 6.8
2017-Jan-11 04:33N 53°50' E 009°20'8 7.9
2017-Jan-11 03:34N 53°53' E 009°08'3 3.2
2017-Jan-11 02:33N 53°56' E 009°12'8 8.4
2017-Jan-11 01:33N 54°03' E 009°18'54 7.4
2017-Jan-10 18:10N 54°34' E 010°35'914.1
2017-Jan-10 17:34N 54°35' E 010°49'1514.7
2017-Jan-10 16:34N 54°35' E 011°15'1916.0
2017-Jan-10 15:21N 54°27' E 011°45'7112.2
2017-Jan-10 09:33N 54°58' E 013°35'1413.4
2017-Jan-10 08:32N 55°03' E 013°57'1211.9
2017-Jan-10 07:32N 55°11' E 014°12'1212.2
2017-Jan-10 06:34N 55°20' E 014°26'1312.3
2017-Jan-10 05:31N 55°29' E 014°41'1313.4
2017-Jan-10 04:33N 55°36' E 015°01'  

Dump ship's entire track history